Time;durP1;ratioP1;P1;durP2;ratioP2;P2;SDS_P1;SDS_P2;PMS_P1;PMS_P2;Temp;Humidity;BMP_temperature;BMP_pressure;BME280_temperature;BME280_humidity;BME280_pressure;Samples;Min_cycle;Max_cycle;Signal;HPM_P1;HPM_P2
2022/12/06 00:00:30;;;;;;;33.78;12.43;;;;;;;-6.58;100.00;100399.81;5016121;28;20136;-60
2022/12/06 00:02:57;;;;;;;31.77;10.70;;;;;;;-6.75;100.00;100408.41;5016771;28;20149;-61
2022/12/06 00:05:23;;;;;;;28.52;11.85;;;;;;;-6.87;100.00;100399.47;5019720;28;20046;-61
2022/12/06 00:07:49;;;;;;;37.95;13.48;;;;;;;-6.84;100.00;100380.38;5019559;28;20049;-61
2022/12/06 00:10:16;;;;;;;35.40;12.90;;;;;;;-6.85;100.00;100369.94;5019672;28;20152;-61
2022/12/06 00:12:42;;;;;;;43.30;13.05;;;;;;;-6.44;100.00;100348.75;5019249;28;20054;-60
2022/12/06 00:15:09;;;;;;;32.42;12.05;;;;;;;-6.64;100.00;100353.50;5019630;28;20054;-61
2022/12/06 00:17:35;;;;;;;31.60;13.95;;;;;;;-6.87;100.00;100354.97;5019183;28;20045;-61
2022/12/06 00:20:02;;;;;;;31.98;13.38;;;;;;;-6.46;100.00;100344.69;5019048;28;20050;-61
2022/12/06 00:22:29;;;;;;;33.45;13.65;;;;;;;-6.57;100.00;100354.25;5019343;28;20053;-61
2022/12/06 00:24:55;;;;;;;36.70;13.07;;;;;;;-6.47;100.00;100343.03;5019054;28;20060;-61
2022/12/06 00:27:21;;;;;;;31.63;13.20;;;;;;;-6.40;100.00;100343.78;5019365;28;20396;-61
2022/12/06 00:29:47;;;;;;;32.72;12.52;;;;;;;-6.58;100.00;100359.81;5019097;28;20312;-61
2022/12/06 00:32:14;;;;;;;30.75;11.65;;;;;;;-6.82;100.00;100364.19;5019302;28;20088;-61
2022/12/06 00:34:40;;;;;;;31.50;11.95;;;;;;;-6.56;100.00;100352.38;5018857;28;20192;-61
2022/12/06 00:37:07;;;;;;;19.38;8.90;;;;;;;-6.79;100.00;100353.06;5019276;28;20374;-61
2022/12/06 00:39:33;;;;;;;35.13;14.15;;;;;;;-6.50;100.00;100341.63;5018776;28;20423;-61
2022/12/06 00:42:00;;;;;;;34.78;14.85;;;;;;;-6.33;100.00;100341.88;5019189;28;20100;-60
2022/12/06 00:44:26;;;;;;;35.47;13.95;;;;;;;-6.55;100.00;100346.03;5018687;28;20490;-61
2022/12/06 00:46:52;;;;;;;32.38;13.55;;;;;;;-6.51;100.00;100337.34;5018984;28;20081;-60
2022/12/06 00:49:19;;;;;;;35.17;12.05;;;;;;;-6.39;100.00;100337.41;5018940;28;20114;-60
2022/12/06 00:51:45;;;;;;;26.17;11.95;;;;;;;-6.60;100.00;100333.34;5018858;28;20072;-60
2022/12/06 00:54:13;;;;;;;35.63;13.07;;;;;;;-6.49;100.00;100335.28;5018728;28;20104;-61
2022/12/06 00:56:40;;;;;;;38.00;13.15;;;;;;;-6.40;100.00;100335.75;5018768;28;20141;-61
2022/12/06 00:59:06;;;;;;;50.35;15.20;;;;;;;-6.30;100.00;100336.03;5018783;28;20061;-61
2022/12/06 01:01:34;;;;;;;31.88;12.80;;;;;;;-6.76;100.00;100344.63;5018261;28;20081;-61
2022/12/06 01:04:03;;;;;;;29.13;13.23;;;;;;;-6.73;100.00;100329.00;5018936;28;20053;-61
2022/12/06 01:06:32;;;;;;;29.08;12.85;;;;;;;-6.67;100.00;100327.28;5018414;28;20155;-60
2022/12/06 01:09:01;;;;;;;35.10;13.35;;;;;;;-6.23;100.00;100307.44;5018904;28;20053;-60
2022/12/06 01:11:28;;;;;;;26.10;12.18;;;;;;;-6.82;100.00;100317.00;5018302;28;20064;-60
2022/12/06 01:13:55;;;;;;;35.05;14.80;;;;;;;-6.59;100.00;100319.00;5017851;28;20068;-61
2022/12/06 01:16:24;;;;;;;38.10;13.35;;;;;;;-6.43;100.00;100317.53;5018243;28;20107;-61
2022/12/06 01:18:53;;;;;;;31.27;13.10;;;;;;;-6.35;100.00;100316.44;5018408;28;20076;-60
2022/12/06 01:21:21;;;;;;;26.13;12.00;;;;;;;-6.78;100.00;100320.84;5018402;28;20049;-60
2022/12/06 01:23:47;;;;;;;29.73;12.05;;;;;;;-6.77;100.00;100322.47;5018537;28;20107;-61
2022/12/06 01:26:16;;;;;;;33.03;13.15;;;;;;;-6.74;100.00;100300.69;5018386;28;20049;-61
2022/12/06 01:28:43;;;;;;;38.40;13.48;;;;;;;-6.59;100.00;100302.19;5018190;28;20433;-61
2022/12/06 01:31:10;;;;;;;17.77;8.88;;;;;;;-6.72;100.00;100287.13;5018505;28;20157;-61
2022/12/06 01:33:36;;;;;;;31.45;12.85;;;;;;;-6.34;100.00;100278.03;5017986;28;20054;-61
2022/12/06 01:36:02;;;;;;;33.45;13.50;;;;;;;-6.58;100.00;100279.78;5018521;28;20046;-61
2022/12/06 01:38:29;;;;;;;30.98;11.95;;;;;;;-6.68;100.00;100282.97;5017897;28;20050;-61
2022/12/06 01:40:55;;;;;;;35.22;13.45;;;;;;;-6.42;100.00;100273.84;5017884;28;20085;-60
2022/12/06 01:43:31;;;;;;;36.15;13.23;;;;;;;-5.92;100.00;100268.94;5018129;28;20089;-60
2022/12/06 01:46:00;;;;;;;42.83;13.43;;;;;;;-6.48;100.00;100296.88;5017791;28;20415;-60
2022/12/06 01:48:27;;;;;;;32.05;13.88;;;;;;;-6.51;100.00;100300.00;5018146;28;20184;-60
2022/12/06 01:50:55;;;;;;;33.83;13.18;;;;;;;-6.27;100.00;100295.56;5017882;28;20343;-60
2022/12/06 01:53:24;;;;;;;31.23;10.02;;;;;;;-6.64;100.00;100300.97;5017960;28;20407;-61
2022/12/06 01:55:51;;;;;;;28.70;12.10;;;;;;;-6.76;100.00;100292.13;5017651;28;20081;-61
2022/12/06 01:58:22;;;;;;;29.27;11.45;;;;;;;-6.50;100.00;100279.47;5018124;28;20392;-61
2022/12/06 02:00:48;;;;;;;27.23;11.15;;;;;;;-6.40;100.00;100274.41;5017483;28;20053;-60
2022/12/06 02:03:19;;;;;;;24.98;11.30;;;;;;;-6.35;100.00;100263.88;5017964;28;20526;-61
2022/12/06 02:05:45;;;;;;;22.27;10.70;;;;;;;-6.49;100.00;100268.59;5017843;28;20127;-61
2022/12/06 02:08:13;;;;;;;21.23;8.85;;;;;;;-6.34;100.00;100257.50;5017710;28;20376;-60
2022/12/06 02:10:39;;;;;;;25.00;12.02;;;;;;;-6.41;100.00;100270.13;5017637;28;20100;-61
2022/12/06 02:13:06;;;;;;;21.08;9.75;;;;;;;-6.53;100.00;100269.25;5017396;28;20491;-61
2022/12/06 02:15:46;;;;;;;24.30;9.38;;;;;;;-6.46;100.00;100262.00;5017445;28;20061;-61
2022/12/06 02:18:19;;;;;;;19.08;9.10;;;;;;;-6.59;100.00;100267.50;5017369;28;20050;-60
2022/12/06 02:20:50;;;;;;;25.55;10.40;;;;;;;-6.28;100.00;100261.91;5017673;28;20081;-60
2022/12/06 02:23:50;;;;;;;18.90;8.70;;;;;;;-6.54;100.00;100260.44;5017237;28;20064;-60
2022/12/06 02:26:25;;;;;;;19.85;7.93;;;;;;;-6.44;100.00;100257.22;5005557;28;20050;-61
2022/12/06 02:29:24;;;;;;;26.48;9.70;;;;;;;-6.50;100.00;100258.13;5017551;28;20137;-60
2022/12/06 02:31:57;;;;;;;19.23;8.75;;;;;;;-6.51;100.00;100249.31;5017099;28;20092;-61
2022/12/06 02:34:30;;;;;;;26.05;9.32;;;;;;;-6.20;100.00;100237.59;5017519;28;20082;-61
2022/12/06 02:37:01;;;;;;;27.92;8.75;;;;;;;-6.51;100.00;100253.84;5017054;28;20331;-60
2022/12/06 02:39:34;;;;;;;22.33;9.82;;;;;;;-6.41;100.00;100243.44;5017254;28;20060;-60
2022/12/06 02:42:04;;;;;;;16.98;8.27;;;;;;;-6.56;100.00;100240.34;5017253;28;20212;-61
2022/12/06 02:44:35;;;;;;;22.58;8.93;;;;;;;-6.44;100.00;100241.22;5016958;28;20420;-61
2022/12/06 02:47:07;;;;;;;21.90;8.52;;;;;;;-6.59;100.00;100241.63;5017182;28;20050;-61
2022/12/06 02:49:37;;;;;;;22.83;8.27;;;;;;;-6.63;100.00;100230.59;5017001;28;20134;-61
2022/12/06 02:52:04;;;;;;;23.90;8.57;;;;;;;-6.67;100.00;100234.75;5017348;28;20085;-61
2022/12/06 02:54:31;;;;;;;19.05;8.02;;;;;;;-6.58;100.00;100231.78;5016878;28;20195;-60
2022/12/06 02:56:57;;;;;;;17.95;8.65;;;;;;;-6.49;100.00;100223.22;5017352;28;20049;-61
2022/12/06 02:59:24;;;;;;;21.48;8.45;;;;;;;-6.16;100.00;100228.09;5016783;28;20471;-60
2022/12/06 03:01:55;;;;;;;14.55;6.63;;;;;;;-6.50;100.00;100255.44;5016964;28;20054;-60
2022/12/06 03:04:45;;;;;;;19.05;9.18;;;;;;;-6.47;100.00;100234.47;5016655;28;20054;-61
2022/12/06 03:07:27;;;;;;;23.38;10.02;;;;;;;-6.47;100.00;100234.47;5017132;28;20064;-61
2022/12/06 03:10:03;;;;;;;16.70;9.00;;;;;;;-6.73;100.00;100235.66;5016971;28;20060;-60
2022/12/06 03:12:36;;;;;;;22.98;8.35;;;;;;;-6.71;100.00;100236.22;5016559;28;20076;-61
2022/12/06 03:15:10;;;;;;;17.83;8.77;;;;;;;-6.72;100.00;100215.94;5016944;28;20136;-61
2022/12/06 03:17:42;;;;;;;23.33;9.63;;;;;;;-6.66;100.00;100214.25;5016785;28;20050;-61
2022/12/06 03:20:13;;;;;;;21.67;9.65;;;;;;;-6.54;100.00;100206.25;5016650;28;20058;-61
2022/12/06 03:22:45;;;;;;;21.20;10.93;;;;;;;-6.53;100.00;100208.72;5016533;28;20050;-61
2022/12/06 03:25:13;;;;;;;20.30;8.40;;;;;;;-6.66;100.00;100216.91;5016567;28;20092;-61
2022/12/06 03:27:41;;;;;;;26.90;10.60;;;;;;;-6.70;100.00;100210.38;5016906;28;20049;-61
2022/12/06 03:30:12;;;;;;;24.88;10.27;;;;;;;-6.29;100.00;100204.25;5016622;28;20132;-61
2022/12/06 03:32:43;;;;;;;23.88;10.55;;;;;;;-6.51;100.00;100208.47;5016636;28;20058;-61
2022/12/06 03:35:14;;;;;;;19.17;9.00;;;;;;;-6.59;100.00;100208.81;5016254;28;20128;-61
2022/12/06 03:37:46;;;;;;;30.63;10.32;;;;;;;-6.42;100.00;100207.13;5018732;28;20372;-60
2022/12/06 03:40:18;;;;;;;27.30;10.43;;;;;;;-6.52;100.00;100212.19;5019776;28;20050;-61
2022/12/06 03:42:46;;;;;;;24.27;8.68;;;;;;;-6.48;100.00;100210.69;5019667;28;20064;-61
2022/12/06 03:45:13;;;;;;;26.38;10.73;;;;;;;-6.49;100.00;100207.22;5019862;28;20141;-60
2022/12/06 03:47:48;;;;;;;20.50;8.90;;;;;;;-6.44;100.00;100209.19;5019622;28;20140;-62
2022/12/06 03:50:19;;;;;;;23.15;9.88;;;;;;;-6.33;100.00;100207.59;5020019;28;20383;-61
2022/12/06 03:52:46;;;;;;;20.35;9.70;;;;;;;-6.65;100.00;100218.53;5019686;28;20154;-60
2022/12/06 03:55:12;;;;;;;22.42;9.23;;;;;;;-6.59;100.00;100216.81;5019855;28;20061;-60
2022/12/06 03:57:38;;;;;;;17.05;8.48;;;;;;;-6.70;100.00;100219.19;5019576;28;20049;-61
2022/12/06 04:00:06;;;;;;;23.17;8.20;;;;;;;-6.43;100.00;100208.16;5020178;28;20054;-60
2022/12/06 04:02:32;;;;;;;12.57;5.47;;;;;;;-6.73;100.00;100195.66;5019415;28;20331;-61
2022/12/06 04:04:59;;;;;;;15.48;7.32;;;;;;;-6.83;100.00;100206.06;5019891;28;20139;-60
2022/12/06 04:07:26;;;;;;;14.38;6.57;;;;;;;-6.80;100.00;100191.44;5019627;28;20057;-61
2022/12/06 04:09:55;;;;;;;19.88;8.45;;;;;;;-6.64;100.00;100172.94;5019274;28;20485;-60
2022/12/06 04:15:08;;;;;;;19.58;8.80;;;;;;;-6.77;100.00;100167.00;5019278;28;20466;-61
2022/12/06 04:20:22;;;;;;;19.23;7.25;;;;;;;-6.75;100.00;100148.91;5019438;28;20100;-61
2022/12/06 04:23:03;;;;;;;10.48;6.47;;;;;;;-6.56;100.00;100149.66;5019488;28;20446;-60
2022/12/06 04:25:30;;;;;;;17.75;8.80;;;;;;;-6.45;100.00;100140.88;5019116;28;20050;-61
2022/12/06 04:38:55;;;;;;;;;;;;;;;-6.48;100.00;100133.34;5019303;28;20103;-61
2022/12/06 04:44:06;;;;;;;30.52;12.27;;;;;;;-6.14;100.00;100137.09;5019000;28;20065;-61
2022/12/06 04:46:32;;;;;;;22.20;10.60;;;;;;;-6.51;100.00;100169.28;5018633;28;20145;-61
2022/12/06 04:48:59;;;;;;;16.38;8.38;;;;;;;-6.64;100.00;100170.28;5018145;28;20437;-61
2022/12/06 04:51:25;;;;;;;22.95;11.38;;;;;;;-6.35;100.00;100175.00;5018433;28;20419;-61
2022/12/06 04:53:51;;;;;;;20.95;8.73;;;;;;;-6.45;100.00;100183.56;5018742;28;20081;-61
2022/12/06 04:56:18;;;;;;;21.85;9.98;;;;;;;-6.40;100.00;100184.53;5018246;28;20056;-60
2022/12/06 04:58:45;;;;;;;22.48;10.07;;;;;;;-6.65;100.00;100179.34;5018824;28;20145;-61
2022/12/06 05:01:11;;;;;;;20.00;8.57;;;;;;;-6.72;100.00;100167.94;5018501;28;20050;-61
2022/12/06 05:03:38;;;;;;;13.60;7.07;;;;;;;-6.70;100.00;100143.69;5018290;28;20422;-60
2022/12/06 05:06:05;;;;;;;13.00;6.43;;;;;;;-6.82;100.00;100142.88;5018625;28;20374;-57
2022/12/06 05:08:32;;;;;;;21.48;8.88;;;;;;;-6.63;100.00;100131.09;5018128;28;20054;-68
2022/12/06 05:10:58;;;;;;;17.33;7.75;;;;;;;-6.61;100.00;100122.88;5018465;28;20372;-68
2022/12/06 05:13:25;;;;;;;19.65;8.70;;;;;;;-6.79;100.00;100137.09;5018407;28;20379;-68
2022/12/06 05:15:52;;;;;;;13.98;7.82;;;;;;;-6.68;100.00;100113.09;5018240;28;20140;-69
2022/12/06 05:18:19;;;;;;;16.30;7.47;;;;;;;-6.37;100.00;100108.50;5018152;28;20050;-69
2022/12/06 05:20:45;;;;;;;15.07;7.40;;;;;;;-6.74;100.00;100126.53;5018205;28;20161;-67
2022/12/06 05:23:12;;;;;;;9.75;5.93;;;;;;;-6.83;100.00;100123.41;5018052;28;20060;-65
2022/12/06 05:25:38;;;;;;;14.38;7.65;;;;;;;-6.60;100.00;100111.16;5018034;28;20053;-68
2022/12/06 05:28:05;;;;;;;18.23;8.45;;;;;;;-6.27;100.00;100103.41;5017972;28;20081;-67
2022/12/06 05:30:33;;;;;;;16.08;7.45;;;;;;;-6.40;100.00;100115.16;5018255;28;20057;-67
2022/12/06 05:32:59;;;;;;;16.50;6.78;;;;;;;-6.48;100.00;100122.66;5017953;28;20164;-67
2022/12/06 05:35:25;;;;;;;12.00;6.82;;;;;;;-6.30;100.00;100122.56;5018034;28;20133;-67
2022/12/06 05:37:52;;;;;;;19.35;9.75;;;;;;;-6.13;100.00;100125.38;5018043;28;20050;-67
2022/12/06 05:40:18;;;;;;;10.73;4.75;;;;;;;-6.44;100.00;100132.63;5018173;28;20137;-65
2022/12/06 05:42:44;;;;;;;13.98;6.95;;;;;;;-6.32;100.00;100148.69;5017661;28;20046;-68
2022/12/06 05:45:11;;;;;;;15.65;9.48;;;;;;;-6.52;100.00;100143.66;5017970;28;20093;-67
2022/12/06 05:47:38;;;;;;;19.55;8.10;;;;;;;-6.60;100.00;100138.63;5017685;28;20419;-64
2022/12/06 05:50:07;;;;;;;18.15;8.73;;;;;;;-6.31;100.00;100133.47;5018182;28;20323;-67
2022/12/06 05:52:33;;;;;;;18.92;8.70;;;;;;;-6.53;100.00;100144.69;5017732;28;20054;-65
2022/12/06 05:54:59;;;;;;;22.63;9.32;;;;;;;-6.43;100.00;100138.78;5018056;28;20316;-60
2022/12/06 05:57:26;;;;;;;17.67;8.93;;;;;;;-6.05;100.00;100125.03;5017537;28;20434;-65
2022/12/06 05:59:52;;;;;;;22.88;10.82;;;;;;;-5.97;100.00;100137.22;5016956;28;20153;-65
2022/12/06 06:02:19;;;;;;;16.42;7.60;;;;;;;-6.47;100.00;100153.63;5017019;28;20157;-64
2022/12/06 06:04:46;;;;;;;15.27;7.18;;;;;;;-6.58;100.00;100151.75;5017549;28;20424;-66
2022/12/06 06:07:12;;;;;;;17.30;8.13;;;;;;;-6.67;100.00;100135.25;5017480;28;20164;-65
2022/12/06 06:09:38;;;;;;;17.98;8.43;;;;;;;-6.57;100.00;100134.69;5017144;28;20049;-66
2022/12/06 06:12:05;;;;;;;12.68;6.25;;;;;;;-6.58;100.00;100112.56;5017714;28;20141;-66
2022/12/06 06:14:31;;;;;;;12.45;6.85;;;;;;;-6.54;100.00;100110.25;5017134;28;20315;-66
2022/12/06 06:16:58;;;;;;;15.07;7.20;;;;;;;-6.48;100.00;100112.00;5017364;28;20141;-68
2022/12/06 06:19:24;;;;;;;16.85;8.77;;;;;;;-6.51;100.00;100101.78;5017144;28;20128;-66
2022/12/06 06:21:51;;;;;;;17.88;9.27;;;;;;;-6.48;100.00;100102.13;5017555;28;20200;-69
2022/12/06 06:24:17;;;;;;;21.35;7.78;;;;;;;-6.70;100.00;100095.69;5017004;28;20068;-66
2022/12/06 06:26:44;;;;;;;15.32;7.90;;;;;;;-6.50;100.00;100082.84;5017400;28;20129;-67
2022/12/06 06:29:10;;;;;;;19.85;8.18;;;;;;;-6.50;100.00;100085.53;5017292;28;20323;-66
2022/12/06 06:31:36;;;;;;;10.70;6.00;;;;;;;-6.43;100.00;100090.75;5016953;28;20107;-56
2022/12/06 06:34:03;;;;;;;18.20;6.82;;;;;;;-6.54;100.00;100091.56;5017015;28;20145;-57
2022/12/06 06:36:29;;;;;;;15.70;7.10;;;;;;;-6.39;100.00;100086.59;5016642;28;20437;-56
2022/12/06 06:38:57;;;;;;;19.65;8.98;;;;;;;-6.68;100.00;100099.78;5016791;28;20145;-59
2022/12/06 06:41:24;;;;;;;27.27;8.25;;;;;;;-6.32;100.00;100086.50;5016791;28;20050;-61
2022/12/06 06:43:50;;;;;;;21.88;8.50;;;;;;;-6.39;100.00;100094.63;5016797;28;20134;-57
2022/12/06 06:46:17;;;;;;;13.05;8.13;;;;;;;-6.37;100.00;100089.03;5016641;28;20050;-59
2022/12/06 06:48:43;;;;;;;15.48;8.73;;;;;;;-6.07;100.00;100084.38;5016949;28;20056;-55
2022/12/06 06:51:12;;;;;;;18.83;7.65;;;;;;;-6.28;100.00;100109.00;5016425;28;20136;-60
2022/12/06 06:53:38;;;;;;;21.58;8.90;;;;;;;-6.27;100.00;100108.75;5016505;28;20080;-60
2022/12/06 06:56:06;;;;;;;18.50;8.35;;;;;;;-6.13;100.00;100111.19;5016555;28;20140;-59
2022/12/06 06:58:33;;;;;;;19.05;8.55;;;;;;;-6.39;100.00;100126.63;5016366;28;20068;-58
2022/12/06 07:01:02;;;;;;;14.30;6.13;;;;;;;-6.47;100.00;100119.75;5016593;28;20557;-59
2022/12/06 07:03:28;;;;;;;17.33;7.38;;;;;;;-6.68;100.00;100120.31;5016171;28;20140;-56
2022/12/06 07:05:56;;;;;;;14.18;7.32;;;;;;;-6.54;100.00;100111.03;5016426;28;20050;-60
2022/12/06 07:08:23;;;;;;;13.35;7.68;;;;;;;-6.49;100.00;100100.50;5016218;28;20085;-54
2022/12/06 07:10:50;;;;;;;14.15;7.60;;;;;;;-6.38;100.00;100101.56;5016821;28;20085;-58
2022/12/06 07:13:19;;;;;;;22.67;8.15;;;;;;;-6.30;100.00;100097.72;5015794;28;20054;-57
2022/12/06 07:15:45;;;;;;;20.42;8.38;;;;;;;-6.41;100.00;100094.03;5016927;28;20058;-58
2022/12/06 07:18:12;;;;;;;14.50;7.10;;;;;;;-6.64;100.00;100094.78;5016226;28;20045;-55
2022/12/06 07:20:38;;;;;;;18.60;7.60;;;;;;;-6.48;100.00;100079.97;5016844;28;20054;-58
2022/12/06 07:23:05;;;;;;;21.50;9.45;;;;;;;-6.19;100.00;100063.06;5015941;28;20057;-57
2022/12/06 07:25:31;;;;;;;18.58;8.63;;;;;;;-6.31;100.00;100058.75;5016174;28;20199;-59
2022/12/06 07:27:58;;;;;;;15.13;8.32;;;;;;;-6.28;100.00;100058.28;5016211;28;20045;-58
2022/12/06 07:30:26;;;;;;;14.93;7.65;;;;;;;-6.37;100.00;100065.00;5016305;28;20446;-59
2022/12/06 07:32:52;;;;;;;17.23;8.40;;;;;;;-6.27;100.00;100059.91;5016220;28;20527;-59
2022/12/06 07:35:19;;;;;;;22.88;8.75;;;;;;;-6.40;100.00;100066.28;5015954;28;20049;-59
2022/12/06 07:37:46;;;;;;;14.50;7.07;;;;;;;-6.32;100.00;100062.47;5016345;28;20054;-59
2022/12/06 07:40:14;;;;;;;14.88;7.15;;;;;;;-6.42;100.00;100058.53;5015863;28;20145;-58
2022/12/06 07:45:26;;;;;;;21.70;11.13;;;;;;;-6.32;100.00;100065.16;5016401;28;20141;-56
2022/12/06 07:47:52;;;;;;;15.18;7.10;;;;;;;-6.53;100.00;100067.34;5015868;28;20387;-60
2022/12/06 07:50:21;;;;;;;18.23;9.00;;;;;;;-6.25;100.00;100055.16;5016148;28;20228;-56
2022/12/06 07:52:48;;;;;;;12.80;7.03;;;;;;;-6.42;100.00;100057.72;5016175;28;20064;-57
2022/12/06 07:55:16;;;;;;;12.38;6.25;;;;;;;-6.43;100.00;100056.91;5016072;28;20447;-57
2022/12/06 07:57:43;;;;;;;20.10;10.43;;;;;;;-6.44;100.00;100057.94;5016091;28;20133;-61
2022/12/06 08:00:11;;;;;;;8.75;5.78;;;;;;;-6.65;100.00;100051.31;5016099;28;20132;-55
2022/12/06 08:02:38;;;;;;;17.35;8.55;;;;;;;-6.41;100.00;100043.31;5015583;28;20137;-59
2022/12/06 08:05:05;;;;;;;12.85;7.50;;;;;;;-6.54;100.00;100044.34;5015848;28;20054;-55
2022/12/06 08:07:31;;;;;;;21.02;9.52;;;;;;;-6.40;100.00;100040.44;5015388;28;20092;-54
2022/12/06 08:09:58;;;;;;;20.70;8.52;;;;;;;-6.51;100.00;100057.22;5015971;28;20132;-59
2022/12/06 08:12:24;;;;;;;15.52;5.97;;;;;;;-6.48;100.00;100043.44;5015248;28;20064;-57
2022/12/06 08:14:50;;;;;;;12.77;6.55;;;;;;;-6.44;100.00;100041.94;5015351;28;20062;-56
2022/12/06 08:17:17;;;;;;;13.50;7.43;;;;;;;-6.43;100.00;100029.41;5015419;28;20050;-58
2022/12/06 08:19:45;;;;;;;9.32;5.43;;;;;;;-6.50;100.00;100042.03;5015525;28;20336;-56
2022/12/06 08:22:12;;;;;;;11.30;6.70;;;;;;;-6.40;100.00;100040.44;5015299;28;20419;-59
2022/12/06 08:24:38;;;;;;;18.88;9.65;;;;;;;-5.87;100.00;100025.25;5017429;28;20149;-55
2022/12/06 08:27:04;;;;;;;25.00;12.38;;;;;;;-5.78;100.00;100037.19;5019006;28;20053;-59
2022/12/06 08:29:30;;;;;;;18.30;8.80;;;;;;;-5.78;100.00;100039.06;5018763;28;20140;-58
2022/12/06 08:31:57;;;;;;;17.63;8.38;;;;;;;-5.93;100.00;100059.09;5018934;28;20046;-60
2022/12/06 08:34:23;;;;;;;14.65;7.40;;;;;;;-6.26;100.00;100082.91;5018459;28;20049;-58
2022/12/06 08:36:50;;;;;;;16.73;8.20;;;;;;;-5.89;100.00;100066.59;5019077;28;20299;-60
2022/12/06 08:39:16;;;;;;;14.88;7.88;;;;;;;-5.71;100.00;100074.44;5018318;28;20046;-60
2022/12/06 08:41:54;;;;;;;17.70;8.43;;;;;;;-5.79;100.00;100090.84;5018685;28;20132;-61
2022/12/06 08:44:21;;;;;;;12.95;7.20;;;;;;;-6.15;100.00;100108.78;5018657;28;20092;-58
2022/12/06 08:46:48;;;;;;;12.10;6.07;;;;;;;-5.99;100.00;100097.41;5018605;28;20061;-59
2022/12/06 08:49:16;;;;;;;9.88;4.70;;;;;;;-6.21;100.00;100102.50;5018668;28;20423;-58
2022/12/06 08:51:43;;;;;;;12.60;6.68;;;;;;;-6.02;100.00;100097.06;5018402;28;20060;-58
2022/12/06 08:54:13;;;;;;;11.20;5.85;;;;;;;-6.01;100.00;100096.00;5018388;28;20161;-59
2022/12/06 08:56:40;;;;;;;15.13;7.60;;;;;;;-5.80;100.00;100084.69;5018087;28;20049;-57
2022/12/06 08:59:06;;;;;;;12.15;6.97;;;;;;;-5.95;100.00;100100.41;5018458;28;20140;-59
2022/12/06 09:01:33;;;;;;;19.40;7.40;;;;;;;-6.07;100.00;100095.06;5018125;28;20151;-60
2022/12/06 09:04:00;;;;;;;15.68;8.68;;;;;;;-6.06;100.00;100093.25;5018255;28;20049;-59
2022/12/06 09:06:27;;;;;;;12.52;6.75;;;;;;;-5.96;100.00;100083.59;5018272;28;20188;-59
2022/12/06 09:08:54;;;;;;;14.02;7.90;;;;;;;-6.06;100.00;100099.38;5018065;28;20049;-59
2022/12/06 09:11:21;;;;;;;11.27;5.03;;;;;;;-6.13;100.00;100087.19;5018475;28;20050;-61
2022/12/06 09:13:48;;;;;;;8.18;4.95;;;;;;;-5.93;100.00;100091.13;5018263;28;20065;-59
2022/12/06 09:16:16;;;;;;;8.30;4.80;;;;;;;-6.01;100.00;100079.97;5018140;28;20137;-60
2022/12/06 09:18:44;;;;;;;12.07;6.03;;;;;;;-5.97;100.00;100084.63;5017981;28;20064;-61
2022/12/06 09:21:12;;;;;;;9.65;5.45;;;;;;;-5.90;100.00;100071.09;5018106;28;20085;-60
2022/12/06 09:23:38;;;;;;;12.05;7.05;;;;;;;-5.66;100.00;100069.22;5017744;28;20053;-59
2022/12/06 09:26:06;;;;;;;15.80;7.03;;;;;;;-5.49;100.00;100071.97;5017881;28;20057;-59
2022/12/06 09:28:34;;;;;;;8.18;4.97;;;;;;;-5.88;100.00;100073.56;5017702;28;20140;-56
2022/12/06 09:31:01;;;;;;;10.93;5.93;;;;;;;-5.80;100.00;100079.34;5018076;28;20049;-58
2022/12/06 09:33:27;;;;;;;12.68;6.13;;;;;;;-5.67;100.00;100075.59;5018001;28;20088;-59
2022/12/06 09:35:55;;;;;;;9.10;5.20;;;;;;;-5.80;100.00;100079.34;5017599;28;20327;-59
2022/12/06 09:38:23;;;;;;;16.52;6.07;;;;;;;-5.69;100.00;100067.84;5017597;28;20061;-56
2022/12/06 09:40:59;;;;;;;14.23;6.68;;;;;;;-5.33;100.00;100059.69;5017643;28;20061;-59
2022/12/06 09:43:39;;;;;;;13.88;6.18;;;;;;;-5.74;100.00;100066.91;5017705;28;20058;-59
2022/12/06 09:46:30;;;;;;;10.20;5.97;;;;;;;-5.81;100.00;100063.56;5017498;28;20337;-60
2022/12/06 09:49:20;;;;;;;12.63;7.15;;;;;;;-5.25;100.00;100048.63;5017830;28;20101;-60
2022/12/06 09:51:59;;;;;;;12.35;6.25;;;;;;;-5.62;100.00;100065.03;5016932;28;20049;-60
2022/12/06 09:54:43;;;;;;;13.65;6.47;;;;;;;-5.80;100.00;100062.50;5017502;28;20156;-58
2022/12/06 09:57:16;;;;;;;17.13;8.73;;;;;;;-5.53;100.00;100050.25;5017359;28;20096;-59
2022/12/06 09:59:53;;;;;;;14.15;6.57;;;;;;;-5.82;100.00;100044.06;5017032;28;20132;-58
2022/12/06 10:02:35;;;;;;;17.83;8.75;;;;;;;-5.21;100.00;100023.84;5017237;28;20136;-58
2022/12/06 10:05:29;;;;;;;14.65;8.35;;;;;;;-5.45;100.00;100019.66;5017376;28;20053;-56
2022/12/06 10:08:08;;;;;;;10.57;5.10;;;;;;;-5.60;100.00;100022.03;5015099;28;20057;-59
2022/12/06 10:10:51;;;;;;;15.38;6.95;;;;;;;-5.86;100.00;100018.88;5017277;28;20109;-59
2022/12/06 10:13:28;;;;;;;8.05;4.75;;;;;;;-5.87;100.00;99995.06;5017059;28;20309;-58
2022/12/06 10:16:08;;;;;;;15.57;8.88;;;;;;;-5.76;100.00;99997.72;5017358;28;20104;-55
2022/12/06 10:18:49;;;;;;;13.18;6.35;;;;;;;-6.01;100.00;99991.88;5017072;28;20131;-59
2022/12/06 10:21:24;;;;;;;15.95;8.45;;;;;;;-5.87;100.00;99966.50;5016832;28;20415;-57
2022/12/06 10:24:02;;;;;;;18.50;8.70;;;;;;;-5.79;100.00;99955.47;5016990;28;20159;-59
2022/12/06 10:26:39;;;;;;;13.52;6.63;;;;;;;-5.76;100.00;99946.97;5016665;28;20500;-56
2022/12/06 10:29:14;;;;;;;21.75;8.88;;;;;;;-5.51;100.00;99927.91;5017154;28;20412;-58
2022/12/06 10:31:54;;;;;;;17.58;8.70;;;;;;;-5.29;100.00;99911.19;5016510;28;20486;-56
2022/12/06 10:34:22;;;;;;;22.00;9.48;;;;;;;-5.47;100.00;99922.88;5016527;28;20145;-60
2022/12/06 10:37:03;;;;;;;16.50;7.97;;;;;;;-5.72;100.00;99921.41;5016800;28;20057;-60
2022/12/06 10:39:43;;;;;;;21.77;7.72;;;;;;;-5.48;100.00;99908.72;5016485;28;20430;-58
2022/12/06 10:42:20;;;;;;;15.20;7.63;;;;;;;-5.41;100.00;99902.41;5017071;28;20080;-57
2022/12/06 10:44:51;;;;;;;15.60;8.27;;;;;;;-5.28;100.00;99902.09;5016721;28;20058;-59
2022/12/06 10:47:24;;;;;;;13.77;6.85;;;;;;;-5.58;100.00;99919.25;5016166;28;20050;-60
2022/12/06 10:49:54;;;;;;;17.30;7.18;;;;;;;-5.44;100.00;99906.38;5016230;28;20551;-57
2022/12/06 10:52:37;;;;;;;13.25;6.95;;;;;;;-5.57;100.00;99914.69;5016499;28;20068;-59
2022/12/06 10:55:21;;;;;;;15.50;7.10;;;;;;;-5.54;100.00;99906.22;5016610;28;20402;-59
2022/12/06 10:57:54;;;;;;;12.13;6.93;;;;;;;-5.54;100.00;99900.88;5015393;28;20348;-59
2022/12/06 11:00:23;;;;;;;18.50;7.82;;;;;;;-5.36;100.00;99892.63;5016593;28;20053;-58
2022/12/06 11:02:58;;;;;;;11.20;6.05;;;;;;;-5.58;100.00;99895.19;5016277;28;20053;-60
2022/12/06 11:05:30;;;;;;;13.57;7.20;;;;;;;-5.44;100.00;99885.00;5016904;28;20538;-56
2022/12/06 11:08:03;;;;;;;17.52;8.05;;;;;;;-4.88;100.00;99869.03;5016096;28;20085;-58
2022/12/06 11:10:33;;;;;;;12.15;6.75;;;;;;;-5.52;100.00;99888.91;5016013;28;20058;-60
2022/12/06 11:13:12;;;;;;;16.85;8.18;;;;;;;-5.31;100.00;99884.69;5016425;28;20203;-57
2022/12/06 11:15:41;;;;;;;10.23;6.50;;;;;;;-5.51;100.00;99881.69;5016312;28;20050;-59
2022/12/06 11:18:12;;;;;;;14.70;7.07;;;;;;;-5.27;100.00;99882.34;5016290;28;20459;-57
2022/12/06 11:20:45;;;;;;;10.57;5.88;;;;;;;-5.41;100.00;99891.72;5016064;28;20053;-58
2022/12/06 11:23:18;;;;;;;13.23;6.82;;;;;;;-5.25;100.00;99877.56;5016286;28;20085;-59
2022/12/06 11:26:02;;;;;;;15.73;5.72;;;;;;;-5.43;100.00;99878.63;5016156;28;20423;-57
2022/12/06 11:28:40;;;;;;;14.30;6.97;;;;;;;-5.36;100.00;99873.13;5015901;28;20058;-62
2022/12/06 11:31:19;;;;;;;12.43;6.60;;;;;;;-4.81;100.00;99872.34;5016397;28;20407;-60
2022/12/06 11:33:46;;;;;;;13.45;6.28;;;;;;;-5.23;100.00;99892.31;5015924;28;20050;-62
2022/12/06 11:36:12;;;;;;;12.50;5.75;;;;;;;-5.24;100.00;99893.34;5016175;28;20089;-58
2022/12/06 11:38:42;;;;;;;14.25;6.55;;;;;;;-5.04;100.00;99889.38;5015973;28;20104;-57
2022/12/06 11:41:13;;;;;;;15.02;6.75;;;;;;;-4.69;100.00;99883.75;5016207;28;20049;-59